createdAt,value
2023-08-29T00:11:39.777Z,52.60
2023-08-29T00:26:39.743Z,53.30
2023-08-29T00:41:40.039Z,53.20
2023-08-29T00:56:40.315Z,52.60
2023-08-29T01:11:40.700Z,52.80
2023-08-29T01:26:40.936Z,52.30
2023-08-29T01:41:41.277Z,52.30
2023-08-29T01:56:41.621Z,52.20
2023-08-29T02:11:41.920Z,53.10
2023-08-29T02:26:42.200Z,53.20
2023-08-29T02:41:42.566Z,53.00
2023-08-29T02:56:42.847Z,52.60
2023-08-29T03:11:43.207Z,52.40
2023-08-29T03:26:43.587Z,53.30
2023-08-29T03:41:43.838Z,53.50
2023-08-29T03:56:44.130Z,52.90
2023-08-29T04:11:44.398Z,52.90
2023-08-29T04:26:44.728Z,53.20
2023-08-29T04:41:45.034Z,53.20
2023-08-29T04:56:45.352Z,53.00
2023-08-29T05:11:45.716Z,52.90
2023-08-29T05:26:46.005Z,52.60
2023-08-29T05:41:46.420Z,53.00
2023-08-29T05:56:46.653Z,53.10
2023-08-29T06:11:46.925Z,53.20
2023-08-29T06:26:47.341Z,53.10
2023-08-29T06:41:47.688Z,52.80
2023-08-29T06:56:48.127Z,52.90
2023-08-29T07:11:50.251Z,52.80
2023-08-29T07:26:48.688Z,53.00
2023-08-29T07:41:49.051Z,53.20
2023-08-29T07:56:49.496Z,53.00
2023-08-29T08:11:49.898Z,53.00
2023-08-29T08:26:50.169Z,52.70
2023-08-29T08:46:15.565Z,52.90
2023-08-29T09:01:18.318Z,53.10
2023-08-29T09:16:16.734Z,52.90
2023-08-29T09:31:17.072Z,53.00
2023-08-29T09:46:17.484Z,52.80
2023-08-29T10:49:20.871Z,53.10
2023-08-29T11:04:21.887Z,54.60
2023-08-29T11:19:21.930Z,54.10
2023-08-29T11:34:22.252Z,54.50
2023-08-29T11:49:22.922Z,54.40
2023-08-29T12:04:24.490Z,54.00
2023-08-29T12:19:23.225Z,54.20
2023-08-29T12:34:25.136Z,54.10
2023-08-29T12:49:23.879Z,54.10
2023-08-29T13:04:24.170Z,53.90
2023-08-29T13:19:24.493Z,53.80
2023-08-29T13:34:24.885Z,54.30
2023-08-29T13:49:25.164Z,54.60
2023-08-29T14:04:25.454Z,54.60
2023-08-29T14:19:25.791Z,54.60
2023-08-29T14:34:26.100Z,54.50
2023-08-29T14:49:26.453Z,54.50
2023-08-29T15:04:26.736Z,54.40
2023-08-29T15:19:27.249Z,54.90
2023-08-29T15:34:28.653Z,55.10
2023-08-29T15:49:27.913Z,55.10
2023-08-29T16:04:28.053Z,55.30
2023-08-29T16:19:28.434Z,55.40
2023-08-29T16:34:30.021Z,55.20
2023-08-29T16:49:28.973Z,55.50
2023-08-29T17:04:29.272Z,55.50
2023-08-29T17:19:29.602Z,55.50
2023-08-29T17:34:30.155Z,55.50
2023-08-29T17:49:31.371Z,55.70
2023-08-29T18:04:30.507Z,55.50
2023-08-29T18:19:30.887Z,55.90
2023-08-29T18:34:31.126Z,56.20
2023-08-29T18:49:31.529Z,56.50
2023-08-29T19:04:31.855Z,56.50
2023-08-29T19:19:32.156Z,56.70
2023-08-29T19:34:32.432Z,56.80
2023-08-29T19:49:32.778Z,56.00
2023-08-29T20:04:33.067Z,56.00
2023-08-29T20:19:36.393Z,55.80
2023-08-29T20:34:36.626Z,55.80
2023-08-29T20:49:36.974Z,55.60
2023-08-29T21:04:37.310Z,55.60
2023-08-29T21:19:37.644Z,55.70
2023-08-29T21:34:37.899Z,55.60
2023-08-29T21:49:38.260Z,55.90
2023-08-29T22:04:38.672Z,56.10
2023-08-29T22:19:38.902Z,56.20
2023-08-29T22:34:39.202Z,56.00
2023-08-29T22:49:39.536Z,55.60
2023-08-29T23:04:39.838Z,55.40
2023-08-29T23:19:40.137Z,55.50
2023-08-29T23:34:40.486Z,55.10
2023-08-29T23:49:40.768Z,55.20
